Time;durP1;ratioP1;P1;durP2;ratioP2;P2;SDS_P1;SDS_P2;PMS_P1;PMS_P2;Temp;Humidity;BMP_temperature;BMP_pressure;BME280_temperature;BME280_humidity;BME280_pressure;Samples;Min_cycle;Max_cycle;Signal;HPM_P1;HPM_P2
2022/11/12 00:00:01;;;;;;;10.45;6.20;;;;;;;6.62;77.84;102705.25;5045938;28;20076;-67
2022/11/12 00:02:29;;;;;;;10.70;5.40;;;;;;;6.69;75.88;102701.75;5046713;28;20051;-67
2022/11/12 00:04:56;;;;;;;12.07;5.68;;;;;;;6.53;74.02;102697.50;5056050;28;20464;-67
2022/11/12 00:07:22;;;;;;;10.32;5.78;;;;;;;6.62;74.21;102697.44;5047024;28;20045;-67
2022/11/12 00:09:48;;;;;;;14.43;5.93;;;;;;;6.54;74.81;102704.44;5047473;28;20048;-68
2022/11/12 00:12:15;;;;;;;9.38;5.20;;;;;;;6.62;73.39;102702.66;5036941;28;20044;-68
2022/11/12 00:14:41;;;;;;;10.98;5.15;;;;;;;6.54;72.90;102701.81;5049444;28;20059;-68
2022/11/12 00:17:08;;;;;;;18.35;6.45;;;;;;;6.33;74.69;102696.69;5046776;28;20041;-67
2022/11/12 00:19:36;;;;;;;12.75;5.55;;;;;;;6.62;74.14;102704.41;5035934;28;20044;-67
2022/11/12 00:22:02;;;;;;;10.48;5.30;;;;;;;6.38;75.39;102707.97;5042578;28;20115;-67
2022/11/12 00:24:28;;;;;;;10.30;5.32;;;;;;;6.27;75.41;102701.94;5046636;28;20052;-67
2022/11/12 00:26:55;;;;;;;14.20;6.00;;;;;;;6.41;74.89;102709.69;5035903;28;20570;-67
2022/11/12 00:29:22;;;;;;;10.68;5.35;;;;;;;6.33;73.98;102707.09;5045821;28;20067;-67
2022/11/12 00:31:48;;;;;;;15.07;5.68;;;;;;;6.31;73.40;102712.34;5046753;28;20049;-67
2022/11/12 00:34:15;;;;;;;12.38;5.78;;;;;;;5.97;74.67;102718.47;5036339;28;20049;-67
2022/11/12 00:36:42;;;;;;;14.77;5.90;;;;;;;6.08;74.75;102721.94;5045431;28;20428;-67
2022/11/12 00:39:09;;;;;;;11.60;5.35;;;;;;;6.12;75.15;102722.81;5048302;28;20653;-67
2022/11/12 00:41:35;;;;;;;12.65;5.13;;;;;;;6.06;75.70;102717.63;5040193;28;20112;-67
2022/11/12 00:44:02;;;;;;;11.00;5.35;;;;;;;6.14;75.01;102723.66;5048962;28;20056;-67
2022/11/12 00:46:28;;;;;;;11.73;4.88;;;;;;;5.93;74.41;102726.28;5050310;28;20051;-67
2022/11/12 00:48:55;;;;;;;11.68;5.18;;;;;;;5.96;74.59;102729.75;5040185;28;20059;-67
2022/11/12 00:51:21;;;;;;;9.98;5.38;;;;;;;6.09;74.43;102739.31;5049061;28;20045;-67
2022/11/12 00:53:49;;;;;;;18.60;6.53;;;;;;;5.90;74.96;102740.19;5050084;28;20044;-67
2022/11/12 00:56:16;;;;;;;12.30;5.53;;;;;;;5.67;77.43;102734.94;5039756;28;20531;-67
2022/11/12 00:58:43;;;;;;;11.75;5.28;;;;;;;5.87;76.48;102735.00;5048576;28;20536;-67
2022/11/12 01:01:11;;;;;;;9.55;4.93;;;;;;;5.82;75.69;102740.16;5050571;28;20048;-67
2022/11/12 01:03:39;;;;;;;10.18;5.25;;;;;;;5.92;75.17;102737.56;5055983;28;20376;-67
2022/11/12 01:06:08;;;;;;;10.48;4.68;;;;;;;5.97;74.96;102744.53;5057994;28;20048;-67
2022/11/12 01:08:35;;;;;;;14.98;5.47;;;;;;;5.70;76.21;102734.94;5049747;28;20508;-67
2022/11/12 01:11:08;;;;;;;17.02;5.57;;;;;;;5.46;77.32;102745.34;5039366;28;20059;-67
2022/11/12 01:13:35;;;;;;;10.38;5.20;;;;;;;5.17;79.32;102742.72;5049019;28;20044;-68
2022/11/12 01:16:05;;;;;;;13.55;5.80;;;;;;;5.26;79.44;102747.91;5040528;28;20041;-67
2022/11/12 01:18:32;;;;;;;13.75;5.60;;;;;;;5.34;78.66;102741.00;5049482;28;20045;-67
2022/11/12 01:21:01;;;;;;;9.25;4.93;;;;;;;5.34;78.38;102746.19;5049077;28;20060;-67
2022/11/12 01:23:28;;;;;;;15.52;5.28;;;;;;;5.33;78.15;102736.66;5039513;28;20076;-68
2022/11/12 01:25:55;;;;;;;14.07;5.30;;;;;;;5.27;78.22;102738.38;5048928;28;20040;-68
2022/11/12 01:28:23;;;;;;;12.35;5.55;;;;;;;5.07;79.21;102737.44;5045417;28;20519;-67
2022/11/12 01:30:50;;;;;;;14.98;5.70;;;;;;;4.81;81.03;102734.75;5020799;28;20071;-67
2022/11/12 01:33:16;;;;;;;14.02;5.75;;;;;;;4.60;83.35;102721.69;5048090;28;20110;-67
2022/11/12 01:35:43;;;;;;;14.00;5.43;;;;;;;4.62;83.86;102736.41;5049368;28;20404;-67
2022/11/12 01:38:09;;;;;;;12.63;5.65;;;;;;;4.67;82.48;102726.94;5050415;28;20051;-67
2022/11/12 01:40:35;;;;;;;10.90;5.13;;;;;;;4.96;81.59;102736.56;5048962;28;20052;-68
2022/11/12 01:43:02;;;;;;;11.13;5.47;;;;;;;5.30;80.02;102734.03;5049021;28;20048;-67
2022/11/12 01:45:30;;;;;;;10.88;5.05;;;;;;;5.42;78.91;102738.41;5038543;28;20040;-68
2022/11/12 01:47:57;;;;;;;10.30;4.85;;;;;;;5.43;77.55;102732.34;5049900;28;20055;-67
2022/11/12 01:50:27;;;;;;;14.48;4.57;;;;;;;5.41;76.68;102739.25;5044462;28;20044;-68
2022/11/12 01:53:00;;;;;;;10.05;4.82;;;;;;;5.60;76.04;102738.41;5047361;28;20067;-67
2022/11/12 01:55:30;;;;;;;13.98;4.55;;;;;;;5.46;75.74;102740.16;5040454;28;20049;-67
2022/11/12 01:58:03;;;;;;;11.50;5.03;;;;;;;5.53;75.23;102736.69;5045132;28;20052;-67
2022/11/12 02:00:31;;;;;;;16.25;5.28;;;;;;;5.54;74.95;102735.81;5048673;28;20048;-67
2022/11/12 02:03:00;;;;;;;10.35;5.20;;;;;;;5.68;74.89;102747.09;5056529;28;20044;-67
2022/11/12 02:05:29;;;;;;;11.05;5.07;;;;;;;5.68;74.66;102741.03;5047047;28;20043;-67
2022/11/12 02:07:58;;;;;;;10.60;4.95;;;;;;;5.52;74.73;102736.66;5048866;28;20048;-67
2022/11/12 02:10:26;;;;;;;10.52;4.97;;;;;;;5.63;74.20;102737.53;5047645;28;20052;-67
2022/11/12 02:15:41;;;;;;;12.00;5.40;;;;;;;5.56;73.82;102738.41;5048094;28;20133;-67
2022/11/12 02:18:08;;;;;;;12.02;5.28;;;;;;;5.61;73.92;102734.09;5038432;28;20492;-67
2022/11/12 02:20:34;;;;;;;10.75;5.22;;;;;;;5.37;75.38;102741.00;5044145;28;20040;-67
2022/11/12 02:23:02;;;;;;;14.30;5.07;;;;;;;5.46;75.14;102742.75;5048433;28;20047;-67
2022/11/12 02:25:29;;;;;;;10.15;4.50;;;;;;;5.27;75.13;102733.19;5037369;28;20082;-67
2022/11/12 02:27:58;;;;;;;15.15;4.75;;;;;;;5.14;75.76;102734.00;5048048;28;20044;-67
2022/11/12 02:30:33;;;;;;;14.73;5.32;;;;;;;5.38;75.52;102740.13;5047500;28;20044;-67
2022/11/12 02:32:59;;;;;;;12.75;5.38;;;;;;;5.46;75.29;102728.88;5043299;28;20052;-67
2022/11/12 02:35:26;;;;;;;12.85;5.45;;;;;;;5.39;75.36;102743.59;5047142;28;20072;-67
2022/11/12 02:37:53;;;;;;;8.48;5.22;;;;;;;5.25;74.93;102745.28;5048558;28;20056;-67
2022/11/12 02:40:20;;;;;;;16.38;5.30;;;;;;;5.09;75.43;102738.34;5050292;28;20043;-68
2022/11/12 02:42:47;;;;;;;10.00;4.63;;;;;;;5.25;75.10;102734.88;5067036;28;20044;-67
2022/11/12 02:45:14;;;;;;;13.10;4.88;;;;;;;5.33;74.87;102735.78;5068652;28;20055;-67
2022/11/12 02:47:41;;;;;;;11.52;5.13;;;;;;;5.23;75.03;102747.03;5048145;28;20041;-67
2022/11/12 02:50:08;;;;;;;13.75;5.38;;;;;;;4.96;75.13;102744.34;5045731;28;20049;-67
2022/11/12 02:52:35;;;;;;;12.93;5.28;;;;;;;4.82;75.67;102750.38;5041654;28;20409;-67
2022/11/12 02:55:01;;;;;;;17.40;5.50;;;;;;;4.76;76.06;102739.97;5036475;28;20150;-67
2022/11/12 02:57:29;;;;;;;14.90;5.60;;;;;;;4.72;76.49;102740.81;5047291;28;20476;-68
2022/11/12 02:59:56;;;;;;;13.13;5.78;;;;;;;4.66;76.81;102732.97;5047387;28;20467;-67
2022/11/12 03:02:22;;;;;;;14.65;5.15;;;;;;;4.55;77.82;102734.66;5045085;28;20045;-67
2022/11/12 03:04:49;;;;;;;12.30;5.20;;;;;;;4.53;78.76;102745.91;5055627;28;20466;-67
2022/11/12 03:07:15;;;;;;;15.23;6.40;;;;;;;4.59;78.53;102741.59;5048549;28;20052;-67
2022/11/12 03:09:41;;;;;;;9.55;5.25;;;;;;;4.67;77.65;102739.03;5036898;28;20052;-67
2022/11/12 03:12:08;;;;;;;14.50;5.25;;;;;;;4.81;77.11;102743.44;5062076;28;20047;-67
2022/11/12 03:14:36;;;;;;;14.88;5.88;;;;;;;4.70;77.68;102745.13;5067520;28;20047;-67
2022/11/12 03:17:03;;;;;;;11.70;5.07;;;;;;;4.80;77.48;102746.88;5038921;28;20761;-67
2022/11/12 03:19:29;;;;;;;12.32;5.20;;;;;;;4.78;76.97;102748.63;5046468;28;20556;-67
2022/11/12 03:21:55;;;;;;;13.25;5.63;;;;;;;4.96;76.92;102749.56;5046785;28;20048;-67
2022/11/12 03:24:22;;;;;;;13.95;5.20;;;;;;;4.98;76.15;102742.63;5041665;28;20411;-67
2022/11/12 03:26:48;;;;;;;13.10;5.10;;;;;;;4.67;76.03;102739.91;5042847;28;20543;-67
2022/11/12 03:29:15;;;;;;;15.27;5.70;;;;;;;4.53;76.45;102744.19;5067941;28;20411;-67
2022/11/12 03:31:43;;;;;;;11.10;5.43;;;;;;;4.35;78.67;102746.69;5049594;28;20512;-67
2022/11/12 03:34:10;;;;;;;16.42;6.30;;;;;;;4.02;81.72;102751.66;5054035;28;20488;-67
2022/11/12 03:36:37;;;;;;;14.43;6.13;;;;;;;4.07;81.34;102755.13;5046734;28;20056;-68
2022/11/12 03:39:03;;;;;;;9.77;5.72;;;;;;;4.29;80.99;102754.41;5037915;28;20056;-68
2022/11/12 03:41:30;;;;;;;10.73;5.80;;;;;;;4.58;79.32;102746.81;5062107;28;20393;-67
2022/11/12 03:43:56;;;;;;;11.35;6.38;;;;;;;4.26;79.58;102744.91;5048023;28;20063;-67
2022/11/12 03:46:23;;;;;;;16.90;6.15;;;;;;;3.96;82.06;102742.09;5037609;28;20427;-67
2022/11/12 03:48:52;;;;;;;11.02;5.93;;;;;;;4.25;81.26;102744.91;5066458;28;20495;-67
2022/11/12 03:51:20;;;;;;;12.55;5.43;;;;;;;3.77;82.21;102748.84;5057613;28;20110;-67
2022/11/12 03:53:46;;;;;;;12.60;6.28;;;;;;;3.58;84.84;102746.13;5035929;28;20083;-67
2022/11/12 03:56:12;;;;;;;15.75;7.68;;;;;;;3.55;86.17;102746.94;5057195;28;20052;-67
2022/11/12 03:58:39;;;;;;;13.60;6.53;;;;;;;3.37;86.78;102745.03;5062701;28;20063;-67
2022/11/12 04:01:05;;;;;;;14.68;6.40;;;;;;;3.93;84.79;102750.72;5039667;28;20461;-67
2022/11/12 04:03:32;;;;;;;16.58;6.90;;;;;;;4.16;82.51;102750.03;5071518;28;20047;-67
2022/11/12 04:08:44;;;;;;;12.90;7.43;;;;;;;3.83;86.89;102741.16;5066622;28;20447;-67
2022/11/12 04:11:12;;;;;;;12.52;6.63;;;;;;;4.46;83.93;102744.16;5062434;28;20177;-67
2022/11/12 04:13:38;;;;;;;13.15;6.65;;;;;;;4.84;81.60;102746.03;5039002;28;20064;-67
2022/11/12 04:21:53;;;;;;;15.02;6.25;;;;;;;4.26;81.07;102746.63;5055919;28;20051;-68
2022/11/12 04:27:09;;;;;;;14.18;6.28;;;;;;;4.62;80.33;102741.63;5049144;28;20166;-67
2022/11/12 04:32:20;;;;;;;10.73;4.95;;;;;;;4.47;78.39;102745.91;5049327;28;20106;-67
2022/11/12 04:34:46;;;;;;;11.32;5.45;;;;;;;4.59;77.38;102741.59;5040096;28;20079;-67
2022/11/12 04:37:15;;;;;;;15.30;6.43;;;;;;;4.54;77.73;102745.94;5049120;28;20048;-68
2022/11/12 04:39:41;;;;;;;12.05;5.75;;;;;;;4.53;77.42;102746.78;5060509;28;20239;-67
2022/11/12 04:45:04;;;;;;;9.60;5.47;;;;;;;4.66;76.05;102743.38;5050397;28;20102;-67
2022/11/12 04:47:34;;;;;;;13.02;5.47;;;;;;;4.38;76.99;102736.31;5067325;28;20040;-67
2022/11/12 04:50:02;;;;;;;12.32;5.97;;;;;;;4.37;77.80;102731.97;5049721;28;20049;-67
2022/11/12 04:52:30;;;;;;;14.20;6.72;;;;;;;4.48;77.64;102722.50;5039566;28;20055;-67
2022/11/12 04:54:57;;;;;;;9.55;5.57;;;;;;;4.45;77.71;102726.81;5049625;28;20428;-67
2022/11/12 04:57:24;;;;;;;11.80;5.13;;;;;;;4.46;76.04;102734.63;5051199;28;20052;-67
2022/11/12 04:59:51;;;;;;;13.50;6.68;;;;;;;4.40;76.25;102722.47;5048768;28;20408;-67
2022/11/12 05:02:18;;;;;;;14.13;5.93;;;;;;;3.85;78.63;102722.97;5046762;28;20033;-67
2022/11/12 05:04:44;;;;;;;9.57;5.05;;;;;;;3.92;78.53;102727.34;5068862;28;20056;-67
2022/11/12 05:07:11;;;;;;;13.15;6.05;;;;;;;3.54;79.71;102731.38;5039758;28;20055;-67
2022/11/12 05:09:39;;;;;;;12.00;5.93;;;;;;;3.27;83.07;102727.66;5049536;28;20044;-67
2022/11/12 05:12:06;;;;;;;10.75;5.90;;;;;;;3.78;81.79;102726.38;5049786;28;20040;-67
2022/11/12 05:14:32;;;;;;;10.43;6.25;;;;;;;3.86;80.74;102735.09;5056865;28;20048;-67
2022/11/12 05:16:59;;;;;;;13.55;5.30;;;;;;;3.94;80.30;102733.44;5068981;28;20635;-67
2022/11/12 05:19:25;;;;;;;10.50;5.18;;;;;;;3.96;78.26;102729.09;5069703;28;20059;-67
2022/11/12 05:22:07;;;;;;;13.05;5.57;;;;;;;4.00;77.08;102727.41;5059596;28;20385;-67
2022/11/12 05:24:36;;;;;;;11.48;5.20;;;;;;;3.86;76.94;102722.13;5060702;28;20044;-67
2022/11/12 05:27:07;;;;;;;16.80;6.15;;;;;;;3.89;76.91;102728.19;5040754;28;20041;-67
2022/11/12 05:29:34;;;;;;;10.82;5.60;;;;;;;3.40;78.48;102723.44;5051767;28;20503;-67
2022/11/12 05:32:00;;;;;;;13.30;7.63;;;;;;;3.21;80.92;102727.63;5044331;28;20044;-67
2022/11/12 05:34:27;;;;;;;11.77;6.95;;;;;;;3.68;79.59;102732.38;5044180;28;20051;-67
2022/11/12 05:36:53;;;;;;;13.27;8.60;;;;;;;3.68;80.43;102730.63;5049844;28;20051;-67
2022/11/12 05:39:20;;;;;;;13.30;6.28;;;;;;;3.70;79.69;102731.50;5049443;28;20063;-67
2022/11/12 05:41:47;;;;;;;8.45;5.88;;;;;;;4.09;77.79;102733.53;5047124;28;20059;-67
2022/11/12 05:44:14;;;;;;;10.65;6.38;;;;;;;4.02;78.12;102730.91;5049187;28;20044;-67
2022/11/12 05:46:41;;;;;;;11.98;5.93;;;;;;;3.59;79.13;102742.66;5047927;28;20052;-67
2022/11/12 05:49:08;;;;;;;17.92;6.18;;;;;;;3.89;78.45;102741.19;5055004;28;20423;-67
2022/11/12 05:51:34;;;;;;;13.27;6.65;;;;;;;3.75;78.16;102753.19;5069680;28;20519;-67
2022/11/12 05:54:01;;;;;;;11.55;5.95;;;;;;;3.30;80.25;102747.56;5068233;28;20672;-67
2022/11/12 05:56:28;;;;;;;13.75;5.45;;;;;;;3.87;78.66;102753.28;5040878;28;20056;-67
2022/11/12 05:58:55;;;;;;;12.05;6.10;;;;;;;3.49;79.40;102746.88;5052003;28;20066;-67
2022/11/12 06:01:22;;;;;;;10.80;5.50;;;;;;;3.54;78.86;102757.31;5055538;28;20408;-67
2022/11/12 06:03:49;;;;;;;16.63;5.65;;;;;;;3.31;80.41;102755.38;5054607;28;20051;-67
2022/11/12 06:06:15;;;;;;;9.45;5.95;;;;;;;3.70;79.05;102760.03;5057969;28;20048;-67
2022/11/12 06:08:42;;;;;;;9.75;5.72;;;;;;;3.19;80.34;102754.34;5068531;28;20097;-67
2022/11/12 06:11:08;;;;;;;10.00;5.70;;;;;;;3.22;80.68;102764.75;5044147;28;20047;-67
2022/11/12 06:13:35;;;;;;;10.98;5.85;;;;;;;3.69;79.20;102773.03;5069265;28;20040;-67
2022/11/12 06:16:01;;;;;;;9.45;5.70;;;;;;;3.68;78.55;102779.94;5054144;28;20048;-67
2022/11/12 06:18:29;;;;;;;9.18;5.50;;;;;;;3.86;77.03;102774.91;5056045;28;20495;-67
2022/11/12 06:21:21;;;;;;;14.02;6.28;;;;;;;3.70;77.35;102780.81;5062500;28;20078;-67
2022/11/12 06:23:51;;;;;;;11.98;6.40;;;;;;;3.42;77.95;102782.28;5038561;28;20110;-67
2022/11/12 06:26:19;;;;;;;10.88;6.30;;;;;;;3.24;79.31;102776.03;5050456;28;20073;-66
2022/11/12 06:28:46;;;;;;;14.60;6.47;;;;;;;3.56;79.04;102782.41;5048706;28;20063;-66
2022/11/12 06:31:13;;;;;;;16.63;7.20;;;;;;;3.34;78.98;102785.63;5037284;28;20048;-67
2022/11/12 06:33:41;;;;;;;16.88;6.38;;;;;;;3.18;78.97;102779.41;5049344;28;20052;-67
2022/11/12 06:36:09;;;;;;;16.95;7.03;;;;;;;3.57;78.08;102778.09;5061956;28;20388;-68
2022/11/12 06:38:38;;;;;;;10.68;6.32;;;;;;;3.89;77.12;102790.50;5044596;28;20044;-67
2022/11/12 06:41:06;;;;;;;11.85;6.05;;;;;;;4.10;76.17;102788.94;5048290;28;20052;-67
2022/11/12 06:43:34;;;;;;;17.65;6.18;;;;;;;3.85;76.07;102791.31;5069513;28;20127;-67
2022/11/12 06:46:01;;;;;;;12.30;6.43;;;;;;;3.84;75.79;102797.34;5057900;28;20515;-67
2022/11/12 06:48:28;;;;;;;13.02;6.53;;;;;;;4.06;75.44;102800.16;5066753;28;20071;-67
2022/11/12 06:50:56;;;;;;;13.98;6.70;;;;;;;3.82;75.49;102799.09;5036082;28;20041;-67
2022/11/12 06:53:23;;;;;;;14.10;6.72;;;;;;;3.02;78.75;102793.06;5052189;28;20063;-67
2022/11/12 06:55:50;;;;;;;14.05;7.75;;;;;;;3.07;80.99;102800.91;5046743;28;20056;-68
2022/11/12 06:58:16;;;;;;;11.10;6.65;;;;;;;3.57;79.92;102806.63;5048362;28;20075;-67
2022/11/12 07:00:43;;;;;;;13.05;7.20;;;;;;;3.75;79.14;102817.16;5040653;28;20044;-67
2022/11/12 07:03:12;;;;;;;12.23;7.30;;;;;;;3.85;78.26;102812.06;5053157;28;20049;-67
2022/11/12 07:05:39;;;;;;;10.65;6.93;;;;;;;4.10;77.28;102817.50;5060590;28;20627;-68
2022/11/12 07:08:07;;;;;;;11.07;6.15;;;;;;;4.19;76.26;102820.16;5058256;28;20047;-68
2022/11/12 07:10:33;;;;;;;15.18;7.15;;;;;;;3.88;76.31;102817.28;5054568;28;20045;-67
2022/11/12 07:13:00;;;;;;;12.75;6.20;;;;;;;4.03;76.55;102816.53;5043944;28;20459;-67
2022/11/12 07:15:26;;;;;;;11.80;6.15;;;;;;;4.06;76.44;102815.72;5037461;28;20118;-67
2022/11/12 07:17:52;;;;;;;16.98;7.25;;;;;;;4.08;77.19;102807.09;5049013;28;20056;-68
2022/11/12 07:20:19;;;;;;;13.25;6.63;;;;;;;4.18;76.55;102811.47;5067417;28;20428;-67
2022/11/12 07:22:45;;;;;;;11.73;6.90;;;;;;;4.34;76.24;102812.47;5049447;28;20045;-67
2022/11/12 07:25:13;;;;;;;13.85;7.15;;;;;;;4.08;77.45;102804.47;5047081;28;20044;-67
2022/11/12 07:27:40;;;;;;;13.35;7.43;;;;;;;4.01;79.05;102815.69;5048299;28;20044;-67
2022/11/12 07:30:07;;;;;;;15.57;7.03;;;;;;;4.72;77.80;102817.91;5036467;28;20060;-67
2022/11/12 07:32:34;;;;;;;13.02;7.60;;;;;;;5.48;76.26;102824.25;5055240;28;20047;-67
2022/11/12 07:35:00;;;;;;;14.50;7.40;;;;;;;6.23;75.00;102828.72;5061792;28;20045;-67
2022/11/12 07:37:27;;;;;;;13.15;7.32;;;;;;;6.70;74.55;102827.75;5053855;28;20052;-68
2022/11/12 07:39:53;;;;;;;13.82;6.88;;;;;;;6.27;72.07;102822.63;5038642;28;20053;-67
2022/11/12 07:42:21;;;;;;;16.10;7.32;;;;;;;6.06;73.55;102820.03;5046861;28;20707;-67
2022/11/12 07:44:47;;;;;;;13.93;7.40;;;;;;;6.11;74.29;102835.66;5037826;28;20063;-67
2022/11/12 07:47:14;;;;;;;12.88;7.93;;;;;;;6.30;75.02;102833.06;5056002;28;20048;-67
2022/11/12 07:49:40;;;;;;;15.50;7.35;;;;;;;6.51;75.79;102837.34;5052737;28;20443;-67
2022/11/12 07:52:06;;;;;;;14.73;7.10;;;;;;;6.17;75.93;102835.66;5057043;28;20424;-67
2022/11/12 07:54:33;;;;;;;20.08;10.02;;;;;;;6.01;83.56;102831.31;5050480;28;20408;-67
2022/11/12 07:56:59;;;;;;;17.15;9.68;;;;;;;6.23;82.90;102846.09;5046893;28;20051;-68
2022/11/12 07:59:27;;;;;;;17.77;8.30;;;;;;;6.33;81.31;102840.00;5036119;28;20048;-71
2022/11/12 08:01:53;;;;;;;14.27;8.65;;;;;;;6.59;82.00;102834.75;5046943;28;20064;-71
2022/11/12 08:04:20;;;;;;;14.25;9.57;;;;;;;6.73;83.27;102839.03;5056678;28;20497;-70
2022/11/12 08:06:48;;;;;;;16.83;9.63;;;;;;;6.88;83.41;102835.53;5053633;28;20526;-70
2022/11/12 08:09:14;;;;;;;17.13;9.70;;;;;;;6.54;84.54;102832.13;5065873;28;20048;-69
2022/11/12 08:11:41;;;;;;;16.55;9.50;;;;;;;6.54;85.31;102837.34;5067320;28;20056;-68
2022/11/12 08:14:07;;;;;;;18.20;11.07;;;;;;;6.89;84.89;102831.19;5057051;28;20127;-68
2022/11/12 08:16:35;;;;;;;14.63;9.32;;;;;;;7.27;83.99;102827.56;5066278;28;20628;-68
2022/11/12 08:19:02;;;;;;;20.35;9.52;;;;;;;8.01;80.39;102835.78;5066623;28;20515;-67
2022/11/12 08:21:28;;;;;;;20.45;9.30;;;;;;;8.72;78.26;102833.38;5051507;28;20040;-67
2022/11/12 08:23:55;;;;;;;13.20;8.75;;;;;;;8.73;78.69;102829.03;5055902;28;20070;-67
2022/11/12 08:26:21;;;;;;;15.57;9.25;;;;;;;9.08;77.52;102828.63;5057188;28;20495;-66
2022/11/12 08:28:48;;;;;;;15.32;9.00;;;;;;;9.95;73.67;102828.25;5042331;28;20072;-66
2022/11/12 08:31:16;;;;;;;13.85;8.82;;;;;;;10.98;69.94;102834.28;5053497;28;20064;-66
2022/11/12 08:33:44;;;;;;;13.88;8.50;;;;;;;11.06;69.00;102832.38;5066617;28;20047;-67
2022/11/12 08:36:13;;;;;;;13.35;8.70;;;;;;;12.12;66.08;102835.25;5048918;28;20074;-66
2022/11/12 08:38:40;;;;;;;14.32;7.72;;;;;;;12.73;63.41;102838.88;5049925;28;20466;-66
2022/11/12 08:41:09;;;;;;;12.75;7.88;;;;;;;13.07;62.93;102830.00;5054834;28;20095;-66
2022/11/12 08:43:36;;;;;;;12.98;7.93;;;;;;;13.55;59.97;102843.53;5037815;28;20500;-67
2022/11/12 08:46:03;;;;;;;12.07;7.85;;;;;;;14.84;56.52;102844.47;5063922;28;20484;-67
2022/11/12 08:48:31;;;;;;;11.13;7.63;;;;;;;14.41;55.67;102854.84;5054840;28;20041;-67
2022/11/12 08:51:01;;;;;;;11.65;6.85;;;;;;;14.66;57.43;102846.91;5043048;28;20044;-67
2022/11/12 08:53:27;;;;;;;11.95;7.35;;;;;;;15.19;55.66;102842.31;5046446;28;20059;-67
2022/11/12 08:55:54;;;;;;;11.80;7.20;;;;;;;15.73;54.78;102845.50;5053772;28;20091;-68
2022/11/12 08:58:21;;;;;;;10.00;6.45;;;;;;;16.14;55.60;102848.25;5045244;28;20614;-67
2022/11/12 09:00:49;;;;;;;11.35;6.32;;;;;;;16.61;53.36;102846.25;5047787;28;20052;-67
2022/11/12 09:03:17;;;;;;;11.32;6.60;;;;;;;16.64;51.72;102840.81;5058574;28;20177;-67
2022/11/12 09:05:44;;;;;;;10.25;6.95;;;;;;;15.42;54.39;102856.38;5067217;28;20055;-67
2022/11/12 09:08:14;;;;;;;9.70;6.18;;;;;;;15.84;53.73;102855.66;5071115;28;20511;-67
2022/11/12 09:10:41;;;;;;;10.10;6.40;;;;;;;16.54;53.90;102850.94;5087375;28;20047;-68
2022/11/12 09:13:08;;;;;;;11.13;6.47;;;;;;;17.07;52.01;102850.38;5088674;28;20040;-68
2022/11/12 09:15:34;;;;;;;11.77;7.13;;;;;;;16.94;55.88;102847.41;5078178;28;20048;-68
2022/11/12 09:18:03;;;;;;;9.38;6.95;;;;;;;17.58;51.50;102848.00;5083907;28;20075;-68
2022/11/12 09:20:31;;;;;;;9.88;6.97;;;;;;;17.47;51.74;102851.13;5087173;28;20051;-68
2022/11/12 09:22:59;;;;;;;11.02;7.28;;;;;;;17.74;52.36;102848.94;5080054;28;20059;-68
2022/11/12 09:25:27;;;;;;;14.48;6.55;;;;;;;18.49;50.90;102838.09;5084474;28;20071;-68
2022/11/12 09:27:53;;;;;;;8.45;6.40;;;;;;;19.33;49.07;102838.00;5067046;28;20047;-68
2022/11/12 09:30:20;;;;;;;9.13;6.50;;;;;;;19.63;47.28;102834.59;5066640;28;20041;-68
2022/11/12 09:32:47;;;;;;;10.63;6.85;;;;;;;20.14;46.44;102841.41;5071916;28;20060;-68
2022/11/12 09:35:13;;;;;;;8.93;6.35;;;;;;;19.72;48.33;102839.41;5066390;28;20048;-68
2022/11/12 09:37:39;;;;;;;9.07;6.18;;;;;;;19.05;46.79;102837.78;5066361;28;20044;-68
2022/11/12 09:40:07;;;;;;;7.82;6.03;;;;;;;18.97;47.48;102834.69;5065076;28;20075;-70
2022/11/12 09:42:36;;;;;;;10.60;5.63;;;;;;;19.41;48.72;102822.50;5066862;28;20049;-70
2022/11/12 09:45:12;;;;;;;8.85;6.28;;;;;;;19.74;46.52;102824.19;5065264;28;20408;-70
2022/11/12 09:47:44;;;;;;;9.98;5.82;;;;;;;20.22;46.36;102832.00;5064970;28;20048;-70
2022/11/12 09:50:20;;;;;;;9.25;5.55;;;;;;;20.79;46.64;102832.13;5066941;28;20551;-70
2022/11/12 09:52:50;;;;;;;7.60;5.60;;;;;;;21.24;44.54;102833.78;5065533;28;20056;-70
2022/11/12 09:55:23;;;;;;;9.82;5.93;;;;;;;21.11;44.79;102825.69;5067190;28;20052;-70
2022/11/12 09:57:51;;;;;;;7.40;5.10;;;;;;;20.73;44.52;102829.88;5074448;28;20455;-70
2022/11/12 10:00:19;;;;;;;8.77;5.50;;;;;;;19.96;45.64;102829.13;5065512;28;20044;-70
2022/11/12 10:02:53;;;;;;;10.35;5.50;;;;;;;18.74;49.46;102822.63;5064997;28;20404;-70
2022/11/12 10:05:26;;;;;;;8.35;5.80;;;;;;;18.24;50.75;102833.19;5064280;28;20048;-70
2022/11/12 10:08:02;;;;;;;8.35;5.70;;;;;;;17.27;53.69;102827.31;5058245;28;20517;-70
2022/11/12 10:10:41;;;;;;;8.65;5.45;;;;;;;16.78;55.03;102828.69;5066019;28;20043;-70
2022/11/12 10:13:31;;;;;;;10.90;6.03;;;;;;;16.58;54.88;102825.19;5065541;28;20040;-70
2022/11/12 10:19:26;;;;;;;10.50;6.05;;;;;;;15.99;57.93;102826.78;5065160;28;20063;-70
2022/11/12 10:22:04;;;;;;;10.90;5.72;;;;;;;15.85;58.68;102823.00;5066635;28;20435;-70
2022/11/12 10:24:35;;;;;;;10.07;5.50;;;;;;;15.76;59.33;102818.06;5066130;28;20072;-71
2022/11/12 10:27:11;;;;;;;9.35;5.72;;;;;;;15.73;58.98;102816.41;5071295;28;20047;-70
2022/11/12 10:29:49;;;;;;;9.93;5.97;;;;;;;15.62;59.61;102820.41;5067879;28;20052;-70
2022/11/12 10:32:16;;;;;;;10.40;6.13;;;;;;;15.38;60.22;102812.47;5061293;28;20040;-70
2022/11/12 10:34:42;;;;;;;10.60;5.88;;;;;;;15.19;59.53;102806.16;5064258;28;20047;-70
2022/11/12 10:37:16;;;;;;;10.70;5.82;;;;;;;15.15;60.81;102815.13;5066378;28;20057;-70
2022/11/12 10:39:46;;;;;;;11.25;6.20;;;;;;;15.25;61.27;102813.00;5066192;28;20048;-70
2022/11/12 10:42:15;;;;;;;10.65;6.38;;;;;;;14.98;61.08;102802.56;5064274;28;20461;-70
2022/11/12 10:44:44;;;;;;;10.30;6.22;;;;;;;14.75;63.51;102799.91;5073482;28;20071;-70
2022/11/12 10:47:21;;;;;;;10.85;5.82;;;;;;;14.93;63.27;102808.94;5086069;28;20514;-70
2022/11/12 10:50:02;;;;;;;9.65;6.30;;;;;;;15.02;63.75;102809.47;5084582;28;20040;-69
2022/11/12 10:52:29;;;;;;;12.90;6.50;;;;;;;14.97;62.37;102803.47;5066780;28;20109;-69
2022/11/12 10:55:05;;;;;;;10.85;6.07;;;;;;;14.85;62.67;102795.16;5064632;28;20059;-70
2022/11/12 10:57:31;;;;;;;9.65;6.30;;;;;;;15.09;61.77;102810.94;5064452;28;20044;-70
2022/11/12 11:00:15;;;;;;;12.90;6.93;;;;;;;14.99;61.07;102806.94;5064020;28;20044;-70
2022/11/12 11:02:49;;;;;;;10.48;6.50;;;;;;;15.02;60.59;102798.03;5066041;28;20736;-70
2022/11/12 11:05:30;;;;;;;9.27;6.70;;;;;;;14.99;63.02;102795.50;5064438;28;20049;-70
2022/11/12 11:07:57;;;;;;;10.00;6.80;;;;;;;15.06;63.46;102797.00;5064522;28;20076;-69
2022/11/12 11:10:26;;;;;;;12.48;6.93;;;;;;;14.81;60.83;102793.56;5063064;28;20493;-69
2022/11/12 11:13:08;;;;;;;9.85;5.95;;;;;;;15.08;59.78;102787.22;5065231;28;20044;-69
2022/11/12 11:15:38;;;;;;;10.60;6.22;;;;;;;15.29;59.45;102796.13;5067467;28;20036;-69
2022/11/12 11:18:04;;;;;;;13.45;6.38;;;;;;;15.26;59.18;102797.09;5074588;28;20067;-70
2022/11/12 11:20:41;;;;;;;10.60;6.10;;;;;;;14.91;60.92;102793.16;5064030;28;20427;-70
2022/11/12 11:23:16;;;;;;;8.88;4.93;;;;;;;13.94;63.22;102787.78;5064720;28;20048;-69
2022/11/12 11:25:43;;;;;;;9.93;5.25;;;;;;;13.79;63.10;102793.56;5063474;28;20044;-70
2022/11/12 11:28:22;;;;;;;11.70;5.53;;;;;;;14.48;63.40;102793.84;5065288;28;20052;-70
2022/11/12 11:30:58;;;;;;;8.65;5.28;;;;;;;14.65;62.47;102797.66;5064640;28;20050;-69
2022/11/12 11:33:33;;;;;;;10.95;5.55;;;;;;;14.89;61.10;102799.41;5065364;28;20401;-70
2022/11/12 11:36:13;;;;;;;13.15;5.40;;;;;;;13.66;64.62;102793.09;5065608;28;20047;-70
2022/11/12 11:38:47;;;;;;;8.35;4.60;;;;;;;13.40;67.21;102788.66;5046516;28;20048;-70
2022/11/12 11:41:32;;;;;;;11.45;4.88;;;;;;;14.33;65.32;102785.56;5045639;28;20045;-70
2022/11/12 11:44:10;;;;;;;8.15;4.47;;;;;;;14.54;65.04;102775.16;5045468;28;20041;-70
2022/11/12 11:46:50;;;;;;;11.98;4.47;;;;;;;15.19;61.35;102790.31;5044780;28;20041;-70
2022/11/12 11:49:46;;;;;;;8.88;4.93;;;;;;;15.36;62.55;102787.03;5058884;28;20044;-70
2022/11/12 11:52:36;;;;;;;7.53;3.95;;;;;;;14.68;62.29;102772.00;5085364;28;20044;-70